Time;durP1;ratioP1;P1;durP2;ratioP2;P2;SDS_P1;SDS_P2;PMS_P1;PMS_P2;Temp;Humidity;BMP_temperature;BMP_pressure;BME280_temperature;BME280_humidity;BME280_pressure;Samples;Min_cycle;Max_cycle;Signal;HPM_P1;HPM_P2
2021/12/08 00:01:52;;;;;;;2.77;2.53;;;;;;;;;;5013903;28;20248;-47
2021/12/08 00:04:18;;;;;;;3.40;2.83;;;;;;;;;;5014069;28;20407;-48
2021/12/08 00:06:44;;;;;;;4.10;2.60;;;;;;;;;;5014131;28;20395;-48
2021/12/08 00:09:26;;;;;;;3.53;2.90;;;;;;;;;;5013971;28;20519;-47
2021/12/08 00:14:36;;;;;;;8.52;2.78;;;;;;;;;;5014033;28;20179;-48
2021/12/08 00:17:03;;;;;;;3.20;2.40;;;;;;;;;;5013720;28;20226;-48
2021/12/08 00:19:29;;;;;;;3.25;2.95;;;;;;;;;;5013743;28;20424;-48
2021/12/08 00:21:55;;;;;;;2.47;2.00;;;;;;;;;;5013593;28;20682;-48
2021/12/08 00:24:21;;;;;;;7.75;2.88;;;;;;;;;;5013681;28;20191;-48
2021/12/08 00:26:47;;;;;;;4.10;2.10;;;;;;;;;;5013749;28;20218;-48
2021/12/08 00:29:13;;;;;;;7.03;2.50;;;;;;;;;;5013615;28;20683;-48
2021/12/08 00:31:40;;;;;;;1.88;1.77;;;;;;;;;;5013230;28;20403;-48
2021/12/08 00:34:06;;;;;;;1.75;1.65;;;;;;;;;;5013520;28;20174;-50
2021/12/08 00:36:41;;;;;;;4.13;2.33;;;;;;;;;;5013515;28;20597;-48
2021/12/08 00:39:08;;;;;;;3.45;2.00;;;;;;;;;;5013472;28;20188;-48
2021/12/08 00:41:34;;;;;;;4.55;1.80;;;;;;;;;;5013192;28;20715;-47
2021/12/08 00:44:00;;;;;;;3.15;1.73;;;;;;;;;;5013300;28;20165;-47
2021/12/08 00:46:26;;;;;;;3.15;1.88;;;;;;;;;;5013346;28;20561;-47
2021/12/08 00:48:52;;;;;;;4.33;2.20;;;;;;;;;;5013096;28;20204;-48
2021/12/08 00:51:18;;;;;;;2.10;2.00;;;;;;;;;;5012968;28;20403;-48
2021/12/08 00:53:45;;;;;;;2.35;2.25;;;;;;;;;;5013266;28;20411;-47
2021/12/08 00:56:11;;;;;;;3.53;1.92;;;;;;;;;;5013070;28;20199;-48
2021/12/08 00:58:37;;;;;;;2.15;1.95;;;;;;;;;;5012857;28;20189;-47
2021/12/08 01:01:03;;;;;;;5.80;2.63;;;;;;;;;;5012819;28;20655;-48
2021/12/08 01:03:30;;;;;;;2.38;2.17;;;;;;;;;;5013010;28;20813;-47
2021/12/08 01:05:56;;;;;;;2.30;2.00;;;;;;;;;;5012988;28;20176;-48
2021/12/08 01:08:25;;;;;;;3.08;2.63;;;;;;;;;;5012887;28;20230;-48
2021/12/08 01:10:53;;;;;;;2.90;2.70;;;;;;;;;;5012684;28;20529;-50
2021/12/08 01:13:20;;;;;;;7.60;2.90;;;;;;;;;;5012795;28;20202;-48
2021/12/08 01:15:48;;;;;;;2.90;2.70;;;;;;;;;;5012795;28;20203;-48
2021/12/08 01:18:15;;;;;;;8.63;3.08;;;;;;;;;;5012685;28;20287;-48
2021/12/08 01:20:41;;;;;;;2.90;2.15;;;;;;;;;;5012528;28;20660;-48
2021/12/08 01:23:07;;;;;;;7.47;3.10;;;;;;;;;;5012683;28;20173;-48
2021/12/08 01:25:33;;;;;;;3.37;2.00;;;;;;;;;;5012649;28;20279;-48
2021/12/08 01:27:59;;;;;;;5.25;3.15;;;;;;;;;;5012526;28;20471;-48
2021/12/08 01:30:25;;;;;;;5.55;2.78;;;;;;;;;;5012368;28;20270;-48
2021/12/08 01:32:53;;;;;;;6.22;2.97;;;;;;;;;;5012560;28;20235;-48
2021/12/08 01:35:19;;;;;;;4.30;3.40;;;;;;;;;;5012552;28;20172;-48
2021/12/08 01:37:45;;;;;;;3.42;2.97;;;;;;;;;;5012397;28;20259;-47
2021/12/08 01:40:12;;;;;;;3.20;2.90;;;;;;;;;;5012615;28;20242;-48
2021/12/08 01:42:44;;;;;;;6.28;3.08;;;;;;;;;;5012446;28;20403;-48
2021/12/08 01:47:55;;;;;;;2.85;2.65;;;;;;;;;;5012468;28;20215;-48
2021/12/08 01:50:21;;;;;;;3.17;2.87;;;;;;;;;;5011987;28;20161;-50
2021/12/08 01:52:48;;;;;;;3.45;3.13;;;;;;;;;;5012224;28;20402;-48
2021/12/08 01:55:14;;;;;;;5.60;2.92;;;;;;;;;;5012165;28;20191;-50
2021/12/08 01:57:40;;;;;;;4.63;2.67;;;;;;;;;;5012117;28;20179;-49
2021/12/08 02:00:26;;;;;;;4.17;1.87;;;;;;;;;;5011980;28;20448;-47
2021/12/08 02:02:52;;;;;;;3.05;2.72;;;;;;;;;;5011431;28;20411;-47
2021/12/08 02:05:18;;;;;;;7.30;3.50;;;;;;;;;;5011569;28;20187;-49
2021/12/08 02:07:44;;;;;;;3.50;3.15;;;;;;;;;;5011035;28;20255;-48
2021/12/08 02:10:10;;;;;;;3.13;2.83;;;;;;;;;;5010838;28;20170;-48
2021/12/08 02:12:40;;;;;;;3.90;2.70;;;;;;;;;;5011994;28;20160;-48
2021/12/08 02:15:07;;;;;;;2.63;2.42;;;;;;;;;;5012044;28;20161;-48
2021/12/08 02:17:33;;;;;;;2.90;2.55;;;;;;;;;;5011910;28;20180;-49
2021/12/08 02:19:59;;;;;;;3.55;2.70;;;;;;;;;;5011639;28;20200;-48
2021/12/08 02:22:25;;;;;;;4.38;2.92;;;;;;;;;;5011944;28;20172;-47
2021/12/08 02:24:51;;;;;;;4.88;2.03;;;;;;;;;;5012038;28;20168;-47
2021/12/08 02:27:17;;;;;;;3.23;2.67;;;;;;;;;;5011944;28;20176;-48
2021/12/08 02:29:53;;;;;;;3.25;2.80;;;;;;;;;;5011727;28;20502;-48
2021/12/08 02:48:29;;;;;;;2.92;2.55;;;;;;;;;;5012457;28;20215;-49
2021/12/08 02:50:55;;;;;;;2.63;2.20;;;;;;;;;;5012649;28;20203;-48
2021/12/08 02:53:22;;;;;;;2.78;2.58;;;;;;;;;;5012808;28;20176;-48
2021/12/08 02:55:48;;;;;;;2.40;2.13;;;;;;;;;;5013041;28;20283;-48
2021/12/08 02:58:15;;;;;;;2.55;1.67;;;;;;;;;;5012900;28;20632;-47
2021/12/08 03:00:43;;;;;;;2.40;2.30;;;;;;;;;;5012431;28;20208;-47
2021/12/08 03:03:09;;;;;;;2.67;2.47;;;;;;;;;;5013180;28;20169;-47
2021/12/08 03:05:35;;;;;;;2.43;2.23;;;;;;;;;;5012611;28;20247;-48
2021/12/08 03:08:02;;;;;;;2.63;2.42;;;;;;;;;;5012479;28;20864;-47
2021/12/08 03:10:30;;;;;;;2.30;2.10;;;;;;;;;;5012080;28;20172;-48
2021/12/08 03:12:57;;;;;;;6.25;2.90;;;;;;;;;;5012503;28;20197;-51
2021/12/08 03:15:23;;;;;;;4.55;2.47;;;;;;;;;;5012261;28;20640;-48
2021/12/08 03:17:49;;;;;;;3.35;2.50;;;;;;;;;;5012332;28;20576;-48
2021/12/08 03:20:21;;;;;;;2.72;2.53;;;;;;;;;;5011965;28;20588;-49
2021/12/08 03:22:49;;;;;;;5.28;1.98;;;;;;;;;;5015573;28;20165;-48
2021/12/08 03:25:19;;;;;;;2.50;2.30;;;;;;;;;;5015544;28;20184;-49
2021/12/08 03:28:06;;;;;;;2.55;2.35;;;;;;;;;;5015738;28;20156;-48
2021/12/08 03:30:49;;;;;;;3.25;2.30;;;;;;;;;;5015424;28;20187;-47
2021/12/08 03:33:15;;;;;;;2.88;2.67;;;;;;;;;;5016024;28;20168;-47
2021/12/08 03:35:41;;;;;;;3.53;2.77;;;;;;;;;;5015470;28;20199;-47
2021/12/08 03:38:07;;;;;;;4.70;2.30;;;;;;;;;;5015526;28;20450;-47
2021/12/08 03:40:34;;;;;;;3.13;1.93;;;;;;;;;;5015173;28;20410;-48
2021/12/08 03:42:59;;;;;;;2.60;2.27;;;;;;;;;;5015250;28;20404;-47
2021/12/08 03:45:36;;;;;;;5.70;2.37;;;;;;;;;;5015116;28;20477;-48
2021/12/08 03:48:07;;;;;;;2.40;2.20;;;;;;;;;;5015134;28;20442;-47
2021/12/08 03:50:35;;;;;;;2.70;2.50;;;;;;;;;;5015098;28;20167;-49
2021/12/08 03:53:01;;;;;;;2.83;2.33;;;;;;;;;;5015188;28;20597;-48
2021/12/08 03:55:27;;;;;;;2.47;2.23;;;;;;;;;;5014990;28;20643;-49
2021/12/08 03:57:53;;;;;;;2.45;2.25;;;;;;;;;;5014763;28;20426;-47
2021/12/08 04:00:22;;;;;;;2.30;2.20;;;;;;;;;;5014513;28;20192;-49
2021/12/08 04:02:48;;;;;;;2.90;2.70;;;;;;;;;;5014768;28;20169;-48
2021/12/08 04:05:20;;;;;;;4.35;2.60;;;;;;;;;;5014772;28;20222;-49
2021/12/08 04:07:47;;;;;;;3.50;2.60;;;;;;;;;;5014691;28;20161;-47
2021/12/08 04:10:19;;;;;;;5.88;2.55;;;;;;;;;;5014464;28;20195;-48
2021/12/08 04:12:49;;;;;;;2.70;2.50;;;;;;;;;;5014887;28;20583;-47
2021/12/08 04:15:16;;;;;;;4.30;2.35;;;;;;;;;;5014731;28;20168;-47
2021/12/08 04:17:44;;;;;;;3.30;2.60;;;;;;;;;;5014366;28;20182;-48
2021/12/08 04:20:13;;;;;;;3.47;2.80;;;;;;;;;;5014255;28;20574;-47
2021/12/08 04:22:39;;;;;;;2.67;2.10;;;;;;;;;;5014308;28;20251;-49
2021/12/08 04:25:10;;;;;;;2.55;2.45;;;;;;;;;;5014248;28;20658;-48
2021/12/08 04:27:38;;;;;;;3.42;2.97;;;;;;;;;;5014264;28;20179;-48
2021/12/08 04:30:09;;;;;;;2.38;2.17;;;;;;;;;;5014089;28;20168;-48
2021/12/08 04:32:36;;;;;;;3.55;2.67;;;;;;;;;;5014048;28;20168;-47
2021/12/08 04:35:04;;;;;;;7.10;2.50;;;;;;;;;;5014172;28;20211;-48
2021/12/08 04:37:33;;;;;;;3.10;2.80;;;;;;;;;;5014052;28;20195;-48
2021/12/08 04:40:28;;;;;;;3.05;2.75;;;;;;;;;;5013721;28;20172;-47
2021/12/08 04:43:17;;;;;;;2.95;2.75;;;;;;;;;;5013967;28;20165;-47
2021/12/08 04:45:59;;;;;;;5.00;3.00;;;;;;;;;;5013724;28;20637;-47
2021/12/08 05:00:15;;;;;;;4.32;3.42;;;;;;;;;;5013699;28;20175;-47
2021/12/08 05:02:17;;;;;;;3.47;2.70;;;;;;;;;;5013278;28;20234;-47
2021/12/08 05:07:29;;;;;;;4.03;3.10;;;;;;;;;;5013904;28;20247;-49
2021/12/08 05:09:55;;;;;;;4.05;2.97;;;;;;;;;;5013109;28;20179;-48
2021/12/08 05:12:23;;;;;;;8.95;3.42;;;;;;;;;;5013372;28;20260;-47
2021/12/08 05:14:52;;;;;;;5.30;3.20;;;;;;;;;;5013209;28;20223;-48
2021/12/08 05:17:20;;;;;;;3.55;3.00;;;;;;;;;;5013303;28;20200;-47
2021/12/08 05:19:54;;;;;;;5.30;3.22;;;;;;;;;;5013010;28;20557;-48
2021/12/08 05:22:23;;;;;;;3.28;2.95;;;;;;;;;;5013342;28;20156;-48
2021/12/08 05:24:53;;;;;;;3.20;2.90;;;;;;;;;;5013208;28;20211;-48
2021/12/08 05:27:21;;;;;;;3.65;3.35;;;;;;;;;;5012989;28;20168;-48
2021/12/08 05:29:49;;;;;;;6.15;3.60;;;;;;;;;;5012951;28;20189;-47
2021/12/08 05:32:16;;;;;;;3.45;2.72;;;;;;;;;;5013102;28;20168;-48
2021/12/08 05:34:43;;;;;;;7.47;2.75;;;;;;;;;;5013123;28;20178;-47
2021/12/08 05:37:10;;;;;;;3.50;3.20;;;;;;;;;;5012989;28;20210;-48
2021/12/08 05:39:36;;;;;;;4.38;3.20;;;;;;;;;;5012768;28;20188;-48
2021/12/08 05:42:04;;;;;;;5.32;2.92;;;;;;;;;;5012567;28;20168;-49
2021/12/08 05:44:31;;;;;;;5.78;2.55;;;;;;;;;;5012221;28;20513;-48
2021/12/08 05:46:59;;;;;;;3.13;2.70;;;;;;;;;;5012899;28;20168;-48
2021/12/08 05:49:25;;;;;;;3.38;2.92;;;;;;;;;;5012561;28;20747;-47
2021/12/08 05:51:52;;;;;;;10.20;3.17;;;;;;;;;;5012422;28;20226;-48
2021/12/08 05:54:23;;;;;;;5.93;3.08;;;;;;;;;;5012505;28;20168;-49
2021/12/08 05:56:51;;;;;;;4.80;3.28;;;;;;;;;;5012442;28;20672;-47
2021/12/08 05:59:17;;;;;;;4.85;2.80;;;;;;;;;;5012510;28;20230;-48
2021/12/08 06:01:53;;;;;;;3.70;3.25;;;;;;;;;;5012275;28;20179;-48
2021/12/08 06:04:20;;;;;;;4.75;3.05;;;;;;;;;;5012990;28;20226;-47
2021/12/08 06:06:47;;;;;;;4.43;2.97;;;;;;;;;;5012557;28;20205;-48
2021/12/08 06:09:14;;;;;;;7.15;3.42;;;;;;;;;;5012484;28;20214;-48
2021/12/08 06:11:40;;;;;;;2.87;2.63;;;;;;;;;;5012249;28;20199;-48
2021/12/08 06:14:07;;;;;;;5.10;2.83;;;;;;;;;;5012553;28;20910;-49
2021/12/08 06:16:34;;;;;;;2.80;2.60;;;;;;;;;;5012253;28;20823;-47
2021/12/08 06:19:00;;;;;;;2.95;2.72;;;;;;;;;;5012298;28;20192;-48
2021/12/08 06:21:27;;;;;;;5.57;2.78;;;;;;;;;;5012061;28;20165;-47
2021/12/08 06:23:54;;;;;;;5.25;3.15;;;;;;;;;;5012408;28;20624;-48
2021/12/08 06:26:21;;;;;;;4.35;3.47;;;;;;;;;;5012351;28;20184;-48
2021/12/08 06:28:48;;;;;;;3.00;2.53;;;;;;;;;;5012461;28;20227;-48
2021/12/08 06:31:15;;;;;;;4.70;3.55;;;;;;;;;;5011887;28;20176;-48
2021/12/08 06:33:41;;;;;;;4.05;2.90;;;;;;;;;;5012312;28;20180;-49
2021/12/08 06:36:10;;;;;;;9.55;2.92;;;;;;;;;;5012420;28;20192;-48
2021/12/08 06:38:36;;;;;;;4.10;3.28;;;;;;;;;;5011872;28;20246;-48
2021/12/08 06:41:11;;;;;;;2.90;2.60;;;;;;;;;;5011940;28;20214;-48
2021/12/08 06:43:39;;;;;;;2.65;2.45;;;;;;;;;;5012240;28;20640;-48
2021/12/08 06:46:06;;;;;;;4.70;4.20;;;;;;;;;;5012049;28;20184;-47
2021/12/08 06:48:35;;;;;;;3.80;3.22;;;;;;;;;;5011755;28;20214;-47
2021/12/08 06:51:13;;;;;;;6.82;2.80;;;;;;;;;;5012003;28;20173;-48
2021/12/08 06:53:40;;;;;;;3.15;2.92;;;;;;;;;;5012008;28;20214;-48
2021/12/08 06:56:09;;;;;;;2.95;2.72;;;;;;;;;;5014194;28;20188;-48
2021/12/08 06:58:37;;;;;;;5.70;3.47;;;;;;;;;;5015640;28;20196;-47
2021/12/08 07:01:27;;;;;;;3.50;3.20;;;;;;;;;;5015203;28;20306;-48
2021/12/08 07:07:01;;;;;;;5.30;3.25;;;;;;;;;;5006500;28;20698;-49
2021/12/08 07:09:44;;;;;;;3.25;2.95;;;;;;;;;;5015185;28;20726;-49
2021/12/08 07:12:15;;;;;;;7.55;3.50;;;;;;;;;;5015547;28;20255;-47
2021/12/08 07:14:43;;;;;;;3.80;3.28;;;;;;;;;;5015390;28;20168;-47
2021/12/08 07:17:13;;;;;;;3.40;2.35;;;;;;;;;;5015459;28;20222;-47
2021/12/08 07:19:44;;;;;;;3.47;2.90;;;;;;;;;;5015190;28;20207;-47
2021/12/08 07:22:13;;;;;;;4.20;2.95;;;;;;;;;;5015264;28;20149;-48
2021/12/08 07:24:41;;;;;;;6.75;3.30;;;;;;;;;;5015259;28;20258;-48
2021/12/08 07:27:16;;;;;;;4.80;2.90;;;;;;;;;;5015299;28;20168;-47
2021/12/08 07:29:43;;;;;;;5.50;2.67;;;;;;;;;;5015123;28;20219;-50
2021/12/08 07:32:11;;;;;;;9.32;2.55;;;;;;;;;;5014972;28;20598;-48
2021/12/08 07:34:37;;;;;;;2.70;2.05;;;;;;;;;;5007629;28;20188;-47
2021/12/08 07:37:11;;;;;;;6.03;2.70;;;;;;;;;;5014739;28;20642;-48
2021/12/08 07:39:43;;;;;;;6.55;2.80;;;;;;;;;;5014702;28;20184;-47
2021/12/08 07:42:17;;;;;;;3.63;2.50;;;;;;;;;;5014878;28;20176;-47
2021/12/08 07:44:43;;;;;;;4.10;2.17;;;;;;;;;;5013809;28;20165;-47
2021/12/08 07:47:11;;;;;;;3.90;2.60;;;;;;;;;;5014784;28;20181;-47
2021/12/08 07:49:42;;;;;;;4.80;2.67;;;;;;;;;;5014274;28;20204;-48
2021/12/08 07:52:10;;;;;;;5.50;2.50;;;;;;;;;;5012552;28;20271;-48
2021/12/08 07:54:36;;;;;;;4.50;2.30;;;;;;;;;;5013958;28;20173;-47
2021/12/08 07:57:06;;;;;;;4.15;3.10;;;;;;;;;;5013896;28;20687;-49
2021/12/08 07:59:33;;;;;;;2.70;2.40;;;;;;;;;;5012792;28;20184;-50
2021/12/08 08:02:00;;;;;;;4.93;2.60;;;;;;;;;;5014488;28;20179;-49
2021/12/08 08:04:28;;;;;;;8.27;3.08;;;;;;;;;;5014604;28;20677;-48
2021/12/08 08:06:57;;;;;;;5.18;3.20;;;;;;;;;;5013646;28;20172;-48
2021/12/08 08:09:25;;;;;;;7.18;3.42;;;;;;;;;;5014214;28;20206;-48
2021/12/08 08:11:56;;;;;;;3.35;2.55;;;;;;;;;;5013980;28;20520;-47
2021/12/08 08:14:24;;;;;;;4.50;3.17;;;;;;;;;;5014392;28;20192;-48
2021/12/08 08:16:54;;;;;;;5.60;2.90;;;;;;;;;;5014117;28;20195;-48
2021/12/08 08:19:26;;;;;;;2.95;2.65;;;;;;;;;;5014131;28;20424;-48
2021/12/08 08:21:52;;;;;;;4.20;3.20;;;;;;;;;;5014149;28;20632;-48
2021/12/08 08:24:20;;;;;;;4.47;2.40;;;;;;;;;;5014043;28;20172;-48
2021/12/08 08:26:48;;;;;;;4.18;2.78;;;;;;;;;;5014468;28;20502;-47
2021/12/08 08:29:14;;;;;;;5.28;3.10;;;;;;;;;;5013864;28;20188;-47
2021/12/08 08:31:47;;;;;;;6.20;2.70;;;;;;;;;;5013715;28;20546;-47
2021/12/08 08:34:13;;;;;;;3.70;2.55;;;;;;;;;;5013957;28;20483;-50
2021/12/08 08:36:43;;;;;;;3.92;2.70;;;;;;;;;;5013803;28;20193;-50
2021/12/08 08:39:12;;;;;;;3.55;2.80;;;;;;;;;;5013550;28;20197;-48
2021/12/08 08:41:47;;;;;;;5.87;2.83;;;;;;;;;;5013472;28;20698;-48
2021/12/08 08:44:18;;;;;;;4.60;1.90;;;;;;;;;;5013708;28;20410;-47
2021/12/08 08:46:46;;;;;;;2.60;2.40;;;;;;;;;;5013535;28;20263;-48
2021/12/08 08:49:21;;;;;;;4.73;2.27;;;;;;;;;;5014120;28;20204;-48
2021/12/08 08:51:59;;;;;;;9.82;2.40;;;;;;;;;;5013241;28;20458;-48
2021/12/08 08:54:26;;;;;;;3.47;2.20;;;;;;;;;;5013322;28;20179;-48
2021/12/08 08:56:55;;;;;;;8.37;3.30;;;;;;;;;;5013099;28;20473;-49
2021/12/08 08:59:25;;;;;;;2.50;2.20;;;;;;;;;;5013149;28;20875;-48
2021/12/08 09:01:52;;;;;;;4.60;2.35;;;;;;;;;;5012628;28;20160;-49
2021/12/08 09:04:20;;;;;;;5.47;2.40;;;;;;;;;;5013155;28;20173;-48
2021/12/08 09:06:48;;;;;;;3.63;2.37;;;;;;;;;;5013018;28;20446;-48
2021/12/08 09:09:19;;;;;;;5.33;2.57;;;;;;;;;;5012945;28;20933;-49
2021/12/08 09:11:51;;;;;;;5.87;2.33;;;;;;;;;;5012691;28;20443;-49
2021/12/08 09:14:20;;;;;;;5.53;2.70;;;;;;;;;;5012942;28;20423;-48
2021/12/08 09:16:50;;;;;;;3.73;2.70;;;;;;;;;;5012786;28;20455;-48
2021/12/08 09:19:21;;;;;;;4.50;2.10;;;;;;;;;;5012937;28;20826;-48
2021/12/08 09:22:00;;;;;;;8.27;2.95;;;;;;;;;;5012496;28;20405;-48
2021/12/08 09:24:34;;;;;;;4.40;2.07;;;;;;;;;;5012854;28;20160;-49
2021/12/08 09:27:01;;;;;;;4.43;2.80;;;;;;;;;;5012648;28;20437;-48
2021/12/08 09:29:35;;;;;;;3.10;2.03;;;;;;;;;;5012586;28;20528;-48
2021/12/08 09:32:08;;;;;;;3.53;2.03;;;;;;;;;;5012503;28;20883;-47
2021/12/08 09:34:37;;;;;;;3.30;2.10;;;;;;;;;;5012547;28;20427;-48
2021/12/08 09:37:05;;;;;;;5.57;2.57;;;;;;;;;;5012395;28;20816;-50
2021/12/08 09:39:34;;;;;;;3.67;1.87;;;;;;;;;;5012479;28;20763;-52
2021/12/08 09:42:07;;;;;;;5.60;2.03;;;;;;;;;;5012230;28;20486;-48
2021/12/08 09:44:39;;;;;;;9.27;2.30;;;;;;;;;;5012408;28;20897;-48
2021/12/08 09:47:05;;;;;;;4.40;2.00;;;;;;;;;;5012485;28;20174;-48
2021/12/08 09:49:34;;;;;;;5.30;2.67;;;;;;;;;;5011997;28;20225;-49
2021/12/08 09:52:01;;;;;;;5.80;2.23;;;;;;;;;;5008209;28;20439;-50
2021/12/08 09:54:27;;;;;;;5.53;2.03;;;;;;;;;;5012692;28;20405;-48
2021/12/08 09:56:53;;;;;;;9.00;2.30;;;;;;;;;;5012344;28;20466;-48
2021/12/08 09:59:20;;;;;;;4.60;2.50;;;;;;;;;;5012174;28;20436;-48
2021/12/08 10:01:48;;;;;;;2.13;1.90;;;;;;;;;;5011809;28;20392;-50
2021/12/08 10:04:14;;;;;;;8.40;2.20;;;;;;;;;;5012055;28;20633;-48
2021/12/08 10:06:41;;;;;;;6.73;2.20;;;;;;;;;;5011668;28;20835;-49
2021/12/08 10:09:07;;;;;;;3.90;2.00;;;;;;;;;;5011038;28;20428;-49
2021/12/08 10:11:34;;;;;;;3.67;1.77;;;;;;;;;;5010853;28;20408;-48
2021/12/08 10:14:01;;;;;;;6.47;1.80;;;;;;;;;;5012040;28;20414;-48
2021/12/08 10:16:27;;;;;;;6.60;1.77;;;;;;;;;;5012074;28;20503;-48
2021/12/08 10:18:55;;;;;;;4.93;1.70;;;;;;;;;;5011727;28;20433;-48
2021/12/08 10:21:21;;;;;;;3.83;2.40;;;;;;;;;;5011718;28;20909;-48
2021/12/08 10:23:48;;;;;;;4.33;2.40;;;;;;;;;;5012023;28;20400;-47
2021/12/08 10:26:23;;;;;;;2.63;2.20;;;;;;;;;;5011934;28;20404;-48
2021/12/08 10:28:54;;;;;;;5.40;2.30;;;;;;;;;;5011980;28;20423;-48
2021/12/08 10:31:28;;;;;;;7.97;1.90;;;;;;;;;;5014609;28;20411;-50
2021/12/08 10:34:04;;;;;;;5.10;1.77;;;;;;;;;;5015948;28;20387;-48
2021/12/08 10:36:44;;;;;;;2.40;1.70;;;;;;;;;;5015780;28;20823;-47
2021/12/08 10:39:19;;;;;;;7.07;2.13;;;;;;;;;;5015809;28;20906;-48
2021/12/08 10:41:48;;;;;;;2.37;2.00;;;;;;;;;;5015514;28;20396;-50
2021/12/08 10:44:14;;;;;;;10.60;2.37;;;;;;;;;;5015681;28;20919;-49
2021/12/08 10:46:40;;;;;;;7.13;1.80;;;;;;;;;;5015730;28;20546;-48
2021/12/08 10:49:27;;;;;;;3.97;2.20;;;;;;;;;;5015505;28;20447;-48
2021/12/08 10:54:38;;;;;;;7.80;2.20;;;;;;;;;;5015577;28;20419;-50
2021/12/08 10:57:20;;;;;;;3.07;2.30;;;;;;;;;;5015524;28;20455;-49
2021/12/08 10:59:55;;;;;;;11.80;2.50;;;;;;;;;;5015247;28;20454;-49
2021/12/08 11:02:40;;;;;;;8.10;2.42;;;;;;;;;;5015506;28;20402;-48
2021/12/08 11:05:07;;;;;;;3.00;2.77;;;;;;;;;;5015373;28;20176;-48
2021/12/08 11:07:33;;;;;;;6.17;2.37;;;;;;;;;;5015288;28;20404;-48
2021/12/08 11:10:16;;;;;;;6.30;1.80;;;;;;;;;;5015055;28;20454;-50
2021/12/08 11:12:42;;;;;;;2.17;2.07;;;;;;;;;;5015287;28;20399;-48
2021/12/08 11:15:20;;;;;;;2.40;2.00;;;;;;;;;;5015229;28;20858;-48
2021/12/08 11:17:46;;;;;;;6.47;2.57;;;;;;;;;;5014997;28;20516;-48
2021/12/08 11:20:17;;;;;;;6.40;2.00;;;;;;;;;;5013611;28;20877;-48
2021/12/08 11:22:46;;;;;;;4.10;2.60;;;;;;;;;;5014991;28;20411;-47
2021/12/08 11:25:23;;;;;;;4.30;1.90;;;;;;;;;;5015014;28;20412;-48
2021/12/08 11:27:49;;;;;;;6.87;2.10;;;;;;;;;;5014833;28;20510;-49
2021/12/08 11:30:19;;;;;;;8.57;2.60;;;;;;;;;;5014672;28;20437;-48
2021/12/08 11:32:45;;;;;;;2.13;1.97;;;;;;;;;;5014812;28;20491;-51
2021/12/08 11:35:35;;;;;;;2.40;2.13;;;;;;;;;;5014759;28;20406;-48
2021/12/08 11:38:01;;;;;;;5.17;2.03;;;;;;;;;;5014675;28;20438;-49
2021/12/08 11:40:33;;;;;;;4.73;2.20;;;;;;;;;;5014388;28;20824;-50
2021/12/08 11:42:59;;;;;;;4.77;2.33;;;;;;;;;;5013636;28;20462;-48
2021/12/08 11:45:25;;;;;;;2.90;1.90;;;;;;;;;;5014478;28;20420;-48
2021/12/08 11:47:50;;;;;;;4.87;2.33;;;;;;;;;;5014414;28;20435;-47
2021/12/08 11:50:21;;;;;;;8.63;2.70;;;;;;;;;;5013940;28;20434;-48
2021/12/08 11:52:50;;;;;;;2.63;1.80;;;;;;;;;;5014285;28;20433;-48
2021/12/08 11:55:18;;;;;;;2.60;1.83;;;;;;;;;;5014270;28;20407;-48
2021/12/08 11:57:49;;;;;;;7.03;1.83;;;;;;;;;;5013942;28;20569;-49
2021/12/08 12:00:22;;;;;;;6.63;1.60;;;;;;;;;;5013896;28;20409;-48
2021/12/08 12:02:54;;;;;;;6.27;2.17;;;;;;;;;;5014114;28;20405;-48
2021/12/08 12:05:23;;;;;;;6.97;1.97;;;;;;;;;;5014087;28;20528;-48
2021/12/08 12:07:49;;;;;;;7.87;2.47;;;;;;;;;;5014154;28;22041;-50
2021/12/08 12:10:17;;;;;;;12.03;2.40;;;;;;;;;;5013873;28;20785;-48
2021/12/08 12:12:43;;;;;;;3.83;1.70;;;;;;;;;;5014115;28;20410;-48
2021/12/08 12:15:10;;;;;;;3.70;1.97;;;;;;;;;;5014051;28;20912;-48
2021/12/08 12:17:36;;;;;;;6.60;2.73;;;;;;;;;;5012514;28;20460;-48
2021/12/08 12:20:07;;;;;;;2.00;1.80;;;;;;;;;;5013622;28;20736;-48
2021/12/08 12:22:33;;;;;;;14.63;2.60;;;;;;;;;;5012663;28;20777;-48
2021/12/08 12:25:18;;;;;;;5.00;2.50;;;;;;;;;;5013751;28;20414;-48
2021/12/08 12:27:48;;;;;;;4.20;2.07;;;;;;;;;;5013691;28;20405;-48
2021/12/08 12:30:32;;;;;;;5.00;2.43;;;;;;;;;;5013367;28;20416;-48
2021/12/08 12:32:58;;;;;;;4.00;1.80;;;;;;;;;;5012308;28;20868;-49
2021/12/08 12:35:32;;;;;;;2.23;1.80;;;;;;;;;;5013665;28;20405;-48
2021/12/08 12:38:03;;;;;;;5.50;2.00;;;;;;;;;;5013533;28;20552;-48
2021/12/08 12:40:31;;;;;;;5.00;1.93;;;;;;;;;;5013242;28;20390;-50
2021/12/08 12:42:59;;;;;;;4.47;1.70;;;;;;;;;;5013386;28;20393;-48
2021/12/08 12:45:26;;;;;;;5.97;1.60;;;;;;;;;;5013494;28;20401;-48
2021/12/08 12:48:11;;;;;;;7.23;2.10;;;;;;;;;;5013327;28;20912;-50
2021/12/08 12:50:52;;;;;;;2.43;1.73;;;;;;;;;;5005794;28;20426;-48
2021/12/08 12:53:38;;;;;;;5.97;2.47;;;;;;;;;;5006177;28;20465;-48
2021/12/08 12:56:05;;;;;;;4.90;1.80;;;;;;;;;;5013133;28;20477;-51
2021/12/08 12:58:41;;;;;;;3.23;1.97;;;;;;;;;;5013103;28;20429;-51
2021/12/08 13:01:11;;;;;;;3.83;2.03;;;;;;;;;;5012865;28;20433;-50
2021/12/08 13:03:39;;;;;;;4.97;2.03;;;;;;;;;;5013147;28;20482;-48
2021/12/08 13:06:06;;;;;;;4.27;2.10;;;;;;;;;;5013093;28;20402;-48
2021/12/08 13:08:32;;;;;;;4.83;2.03;;;;;;;;;;5013010;28;20505;-48
2021/12/08 13:11:00;;;;;;;5.90;2.07;;;;;;;;;;5012625;28;20503;-48
2021/12/08 13:13:27;;;;;;;6.40;2.00;;;;;;;;;;5013049;28;20408;-48
2021/12/08 13:15:53;;;;;;;6.53;1.77;;;;;;;;;;5012802;28;20401;-48
2021/12/08 13:18:20;;;;;;;10.00;2.43;;;;;;;;;;5011460;28;20480;-48
2021/12/08 13:20:55;;;;;;;2.93;1.80;;;;;;;;;;5011438;28;20409;-48
2021/12/08 13:23:22;;;;;;;3.77;1.97;;;;;;;;;;5012643;28;20393;-49
2021/12/08 13:25:56;;;;;;;7.47;2.00;;;;;;;;;;5011738;28;20485;-49
2021/12/08 13:31:15;;;;;;;1.90;1.60;;;;;;;;;;5012608;28;20415;-49
2021/12/08 13:33:52;;;;;;;3.97;1.80;;;;;;;;;;5012544;28;20406;-49
2021/12/08 13:36:31;;;;;;;7.40;2.07;;;;;;;;;;5012482;28;20460;-48
2021/12/08 13:39:00;;;;;;;2.27;1.40;;;;;;;;;;5011487;28;20564;-48
2021/12/08 13:41:27;;;;;;;2.23;1.70;;;;;;;;;;5012278;28;20899;-49
2021/12/08 13:43:54;;;;;;;14.83;3.27;;;;;;;;;;5012527;28;20401;-48
2021/12/08 13:46:39;;;;;;;5.20;2.13;;;;;;;;;;5012478;28;20483;-49
2021/12/08 13:49:13;;;;;;;3.53;1.70;;;;;;;;;;5012258;28;20448;-49
2021/12/08 13:51:39;;;;;;;4.50;1.77;;;;;;;;;;5012169;28;20889;-49
2021/12/08 13:54:23;;;;;;;4.90;2.10;;;;;;;;;;5012319;28;20416;-48
2021/12/08 13:56:49;;;;;;;9.80;2.47;;;;;;;;;;5012183;28;20828;-48
2021/12/08 13:59:36;;;;;;;8.77;2.13;;;;;;;;;;5010819;28;20444;-48
2021/12/08 14:02:20;;;;;;;2.70;1.73;;;;;;;;;;5011855;28;20408;-48
2021/12/08 14:04:46;;;;;;;6.10;2.33;;;;;;;;;;5011560;28;20411;-48
2021/12/08 14:07:16;;;;;;;3.03;1.73;;;;;;;;;;5012193;28;20414;-48
2021/12/08 14:09:42;;;;;;;1.87;1.73;;;;;;;;;;5011986;28;20424;-49
2021/12/08 14:12:08;;;;;;;5.03;2.77;;;;;;;;;;5012255;28;20415;-49
2021/12/08 14:14:34;;;;;;;6.97;2.10;;;;;;;;;;5011770;28;20894;-48
2021/12/08 14:17:00;;;;;;;4.40;1.80;;;;;;;;;;5012039;28;20459;-50
2021/12/08 14:19:36;;;;;;;4.53;1.93;;;;;;;;;;5012031;28;20428;-48
2021/12/08 14:22:02;;;;;;;8.20;2.50;;;;;;;;;;5011866;28;20796;-51
2021/12/08 14:24:28;;;;;;;5.80;2.23;;;;;;;;;;5011803;28;20405;-50
2021/12/08 14:26:56;;;;;;;9.90;2.23;;;;;;;;;;5011780;28;21164;-49
2021/12/08 14:29:22;;;;;;;2.53;2.10;;;;;;;;;;5011779;28;20427;-48
2021/12/08 14:31:49;;;;;;;6.50;1.90;;;;;;;;;;5011423;28;20411;-48
2021/12/08 14:34:15;;;;;;;4.17;1.70;;;;;;;;;;5011959;28;20407;-48
2021/12/08 14:36:43;;;;;;;5.60;1.87;;;;;;;;;;5011813;28;20448;-48
2021/12/08 14:39:18;;;;;;;4.37;2.47;;;;;;;;;;5011744;28;20454;-48
2021/12/08 14:41:45;;;;;;;8.93;2.23;;;;;;;;;;5011555;28;20386;-50
2021/12/08 14:44:17;;;;;;;2.60;1.57;;;;;;;;;;5011808;28;20404;-48
2021/12/08 14:46:44;;;;;;;4.37;2.10;;;;;;;;;;5012076;28;20415;-48
2021/12/08 14:49:12;;;;;;;5.03;2.13;;;;;;;;;;5012216;28;20839;-48
2021/12/08 14:51:38;;;;;;;1.97;1.60;;;;;;;;;;5011442;28;20900;-48
2021/12/08 14:54:09;;;;;;;3.50;1.95;;;;;;;;;;5011481;28;20422;-48
2021/12/08 14:56:36;;;;;;;3.40;1.80;;;;;;;;;;5011563;28;20649;-50
2021/12/08 14:59:02;;;;;;;2.50;2.00;;;;;;;;;;5011712;28;20423;-48
2021/12/08 15:01:28;;;;;;;2.23;2.03;;;;;;;;;;5011354;28;20653;-48
2021/12/08 15:03:54;;;;;;;10.82;2.67;;;;;;;;;;5011520;28;20406;-48
2021/12/08 15:06:21;;;;;;;6.60;2.70;;;;;;;;;;5009182;28;20184;-49
2021/12/08 15:08:47;;;;;;;3.35;2.10;;;;;;;;;;5011292;28;20436;-48
2021/12/08 15:11:24;;;;;;;2.80;2.50;;;;;;;;;;5011228;28;20177;-48
2021/12/08 15:13:50;;;;;;;4.20;2.28;;;;;;;;;;5011426;28;20846;-49
2021/12/08 15:16:18;;;;;;;6.17;2.77;;;;;;;;;;5012432;28;20228;-49
2021/12/08 15:18:46;;;;;;;3.60;2.22;;;;;;;;;;5014965;28;20457;-51
2021/12/08 15:21:13;;;;;;;6.80;2.30;;;;;;;;;;5014560;28;20195;-48
2021/12/08 15:23:46;;;;;;;8.25;2.30;;;;;;;;;;5014950;28;20157;-48
2021/12/08 15:26:13;;;;;;;10.65;2.70;;;;;;;;;;5014672;28;20169;-48
2021/12/08 15:28:39;;;;;;;5.32;2.20;;;;;;;;;;5014764;28;20558;-49
2021/12/08 15:31:06;;;;;;;3.40;2.20;;;;;;;;;;5014562;28;20561;-49
2021/12/08 15:33:33;;;;;;;8.35;2.40;;;;;;;;;;5014598;28;20716;-49
2021/12/08 15:36:05;;;;;;;3.28;2.55;;;;;;;;;;5014646;28;20192;-48
2021/12/08 15:38:31;;;;;;;8.45;2.95;;;;;;;;;;5014803;28;20201;-47
2021/12/08 15:40:58;;;;;;;7.10;3.10;;;;;;;;;;5014309;28;20222;-49